Deutschlandsberg, Austria
Current Conditions -  °F | °C
As of 3:20 AM on Friday 19 Dec 2014 (Local Time) from LOWG Reporting Station
Light Fog Light Fog  
Wind Chill: 37°   Ceiling: 16000
Heat Index: 37°   Visibility: 1.2mi
Dew Point: 37°   Wind: 3mph
Humidity: 100%   Direction: 350°N
Pressure: 30.06"   Gusts: NA
Location:  46.82°N, 15.21°E
Report Text: LOWG 190120Z AUTO 35003KT 310V010 2000 0800S R35/P1500D BCFG BKN160 03/03 Q1018
Loading
Personal Weather Stations






























Interactive Weather Map New forecast layout! Learn more

10-Day Weather Forecast

Advertisements
Track Severe Weather on mobile